Time;durP1;ratioP1;P1;durP2;ratioP2;P2;SDS_P1;SDS_P2;PMS_P1;PMS_P2;Temp;Humidity;BMP_temperature;BMP_pressure;BME280_temperature;BME280_humidity;BME280_pressure;Samples;Min_cycle;Max_cycle;Signal;HPM_P1;HPM_P2
2023/03/16 00:01:46;;;;;;;;;;;6.10;99.90;;;;;;8374181;28;19928;-73
2023/03/16 00:05:49;;;;;;;;;;;6.10;99.90;;;;;;8376728;28;19932;-73
2023/03/16 00:09:50;;;;;;;;;;;6.10;99.90;;;;;;8381214;28;19935;-73
2023/03/16 00:13:52;;;;;;;;;;;6.10;99.90;;;;;;8367829;28;19931;-73
2023/03/16 00:17:54;;;;;;;;;;;6.00;99.90;;;;;;8375075;28;20007;-73
2023/03/16 00:21:56;;;;;;;;;;;6.00;99.90;;;;;;8369615;28;19924;-73
2023/03/16 00:25:58;;;;;;;;;;;6.00;99.90;;;;;;8383182;28;19932;-73
2023/03/16 00:30:02;;;;;;;;;;;6.00;99.90;;;;;;8377142;28;19948;-73
2023/03/16 00:34:04;;;;;;;;;;;6.00;99.90;;;;;;8369966;28;19977;-73
2023/03/16 00:38:05;;;;;;;;;;;5.90;99.90;;;;;;8384225;28;20015;-73
2023/03/16 00:42:08;;;;;;;;;;;6.00;99.90;;;;;;8362537;28;19947;-73
2023/03/16 00:46:14;;;;;;;;;;;5.90;99.90;;;;;;8388545;28;19929;-73
2023/03/16 00:50:15;;;;;;;;;;;5.90;99.90;;;;;;8379663;28;19932;-73
2023/03/16 00:54:17;;;;;;;;;;;5.80;99.90;;;;;;8380840;28;19936;-73
2023/03/16 00:58:19;;;;;;;;;;;5.80;99.90;;;;;;8384273;28;19925;-73
2023/03/16 01:02:23;;;;;;;;;;;5.80;99.90;;;;;;8385672;28;19924;-73
2023/03/16 01:06:25;;;;;;;;;;;5.80;99.90;;;;;;8377780;28;19935;-73
2023/03/16 01:10:26;;;;;;;;;;;5.80;99.90;;;;;;8383387;28;19924;-73
2023/03/16 01:14:28;;;;;;;;;;;5.80;99.90;;;;;;8380233;28;19978;-73
2023/03/16 01:18:33;;;;;;;;;;;5.80;99.90;;;;;;8393254;28;20376;-73
2023/03/16 01:22:35;;;;;;;;;;;5.80;99.90;;;;;;8368492;28;19931;-73
2023/03/16 01:26:36;;;;;;;;;;;5.80;99.90;;;;;;8392881;28;19932;-73
2023/03/16 01:30:39;;;;;;;;;;;5.80;99.90;;;;;;8378052;28;19932;-73
2023/03/16 01:34:40;;;;;;;;;;;5.80;99.90;;;;;;8393405;28;19924;-72
2023/03/16 01:38:42;;;;;;;;;;;5.80;99.90;;;;;;8393552;28;19963;-73
2023/03/16 01:42:45;;;;;;;;;;;5.80;99.90;;;;;;8387402;28;20394;-73
2023/03/16 01:46:47;;;;;;;;;;;5.80;99.90;;;;;;8380914;28;19936;-73
2023/03/16 01:50:51;;;;;;;;;;;5.70;99.90;;;;;;8381038;28;20226;-73
2023/03/16 02:05:03;;;;;;;;;;;5.80;99.90;;;;;;8387026;28;19920;-73
2023/03/16 02:09:05;;;;;;;;;;;5.80;99.90;;;;;;8394375;28;20374;-73
2023/03/16 02:13:07;;;;;;;;;;;5.70;99.90;;;;;;8383623;28;20272;-73
2023/03/16 02:17:08;;;;;;;;;;;5.70;99.90;;;;;;8386607;28;19931;-73
2023/03/16 02:21:24;;;;;;;;;;;5.80;99.90;;;;;;8384665;28;20332;-73
2023/03/16 02:25:30;;;;;;;;;;;5.80;99.90;;;;;;8373952;28;19928;-73
2023/03/16 02:29:51;;;;;;;;;;;5.80;99.90;;;;;;8382377;28;19935;-73
2023/03/16 02:33:53;;;;;;;;;;;5.80;99.90;;;;;;8368714;28;19939;-73
2023/03/16 02:37:55;;;;;;;;;;;5.80;99.90;;;;;;8366967;28;20388;-73
2023/03/16 02:41:57;;;;;;;;;;;5.80;99.90;;;;;;8382139;28;19977;-73
2023/03/16 02:46:02;;;;;;;;;;;5.90;99.90;;;;;;8386170;28;21446;-73
2023/03/16 02:50:05;;;;;;;;;;;5.80;99.90;;;;;;8383362;28;19925;-73
2023/03/16 02:54:07;;;;;;;;;;;5.80;99.90;;;;;;8379257;28;19944;-73
2023/03/16 02:58:08;;;;;;;;;;;5.80;99.90;;;;;;8391234;28;19934;-73
2023/03/16 03:02:10;;;;;;;;;;;5.80;99.90;;;;;;8378673;28;19924;-73
2023/03/16 03:06:12;;;;;;;;;;;5.80;99.90;;;;;;8383782;28;19925;-73
2023/03/16 03:10:13;;;;;;;;;;;5.80;99.90;;;;;;8380684;28;19925;-73
2023/03/16 03:14:15;;;;;;;;;;;5.80;99.90;;;;;;8387027;28;19936;-73
2023/03/16 03:18:18;;;;;;;;;;;5.80;99.90;;;;;;8386845;28;19964;-73
2023/03/16 03:22:19;;;;;;;;;;;5.80;99.90;;;;;;8386854;28;19924;-73
2023/03/16 03:26:21;;;;;;;;;;;5.80;99.90;;;;;;8376751;28;20011;-73
2023/03/16 03:40:14;;;;;;;;;;;5.80;99.90;;;;;;8380709;28;19979;-73
2023/03/16 03:44:15;;;;;;;;;;;5.70;99.90;;;;;;8379882;28;19936;-73
2023/03/16 03:48:17;;;;;;;;;;;5.70;99.90;;;;;;8374721;28;19939;-73
2023/03/16 03:52:19;;;;;;;;;;;5.70;99.90;;;;;;8374857;28;19932;-73
2023/03/16 03:56:20;;;;;;;;;;;5.70;99.90;;;;;;8385479;28;19983;-73
2023/03/16 04:00:22;;;;;;;;;;;5.70;99.90;;;;;;8365270;28;20395;-73
2023/03/16 04:04:23;;;;;;;;;;;5.70;99.90;;;;;;8386899;28;19924;-73
2023/03/16 04:08:25;;;;;;;;;;;5.60;99.90;;;;;;8391549;28;20014;-73
2023/03/16 04:12:27;;;;;;;;;;;5.60;99.90;;;;;;8376495;28;19981;-73
2023/03/16 04:16:28;;;;;;;;;;;5.60;99.90;;;;;;8384298;28;19935;-73
2023/03/16 04:20:30;;;;;;;;;;;5.50;99.90;;;;;;8377553;28;19924;-73
2023/03/16 04:24:33;;;;;;;;;;;5.50;99.90;;;;;;8382009;28;19928;-73
2023/03/16 04:28:34;;;;;;;;;;;5.50;99.90;;;;;;8381544;28;19931;-73
2023/03/16 04:32:36;;;;;;;;;;;5.50;99.90;;;;;;8381330;28;19934;-73
2023/03/16 04:36:38;;;;;;;;;;;5.50;99.90;;;;;;8388983;28;19929;-72
2023/03/16 04:40:39;;;;;;;;;;;5.40;99.90;;;;;;8372214;28;19928;-73
2023/03/16 04:44:43;;;;;;;;;;;5.40;99.90;;;;;;8374836;28;20407;-73
2023/03/16 04:48:44;;;;;;;;;;;5.40;99.90;;;;;;8364862;28;20167;-73
2023/03/16 04:52:46;;;;;;;;;;;5.40;99.90;;;;;;8385510;28;20326;-73
2023/03/16 04:56:48;;;;;;;;;;;5.40;99.90;;;;;;8375723;28;19925;-73
2023/03/16 05:00:54;;;;;;;;;;;5.40;99.90;;;;;;8379236;28;20292;-73
2023/03/16 05:04:56;;;;;;;;;;;5.40;99.90;;;;;;8364884;28;19977;-73
2023/03/16 05:08:58;;;;;;;;;;;5.40;99.90;;;;;;8380017;28;19928;-73
2023/03/16 05:12:59;;;;;;;;;;;5.40;99.90;;;;;;8367629;28;19960;-73
2023/03/16 05:17:02;;;;;;;;;;;5.40;99.90;;;;;;8383305;28;19936;-73
2023/03/16 05:21:04;;;;;;;;;;;5.40;99.90;;;;;;8368005;28;19925;-73
2023/03/16 05:25:06;;;;;;;;;;;5.50;99.90;;;;;;8367225;28;19933;-73
2023/03/16 05:29:07;;;;;;;;;;;5.50;99.90;;;;;;8397173;28;19931;-73
2023/03/16 05:33:09;;;;;;;;;;;5.50;99.90;;;;;;8393856;28;19979;-73
2023/03/16 05:37:11;;;;;;;;;;;5.50;99.90;;;;;;8393692;28;19924;-73
2023/03/16 05:41:13;;;;;;;;;;;5.50;99.90;;;;;;8369441;28;20015;-73
2023/03/16 05:45:15;;;;;;;;;;;5.50;99.90;;;;;;8390249;28;20291;-73
2023/03/16 05:49:17;;;;;;;;;;;5.50;99.90;;;;;;8358255;28;19934;-72
2023/03/16 05:53:19;;;;;;;;;;;5.50;99.90;;;;;;8386281;28;20367;-73
2023/03/16 05:57:21;;;;;;;;;;;5.50;99.90;;;;;;8379991;28;19948;-73
2023/03/16 06:11:31;;;;;;;;;;;5.40;99.90;;;;;;8392241;28;20465;-73
2023/03/16 06:15:33;;;;;;;;;;;5.50;99.90;;;;;;8383050;28;19971;-73
2023/03/16 06:19:35;;;;;;;;;;;5.50;99.90;;;;;;8390157;28;19931;-73
2023/03/16 06:23:36;;;;;;;;;;;5.50;99.90;;;;;;8372513;28;20397;-73
2023/03/16 06:27:38;;;;;;;;;;;5.50;99.90;;;;;;8394996;28;20008;-73
2023/03/16 06:31:40;;;;;;;;;;;5.50;99.90;;;;;;8381437;28;19928;-73
2023/03/16 06:35:42;;;;;;;;;;;5.60;99.90;;;;;;8365842;28;20439;-73
2023/03/16 06:39:43;;;;;;;;;;;5.60;99.90;;;;;;8370797;28;20992;-73
2023/03/16 06:43:45;;;;;;;;;;;5.70;99.90;;;;;;8356610;28;19932;-73
2023/03/16 06:47:47;;;;;;;;;;;5.70;99.90;;;;;;8378541;28;20272;-73
2023/03/16 06:51:49;;;;;;;;;;;5.70;99.90;;;;;;8397035;28;19947;-73
2023/03/16 06:55:51;;;;;;;;;;;5.70;99.90;;;;;;8385441;28;19975;-73
2023/03/16 06:59:52;;;;;;;;;;;5.70;99.90;;;;;;8374816;28;19928;-73
2023/03/16 07:03:54;;;;;;;;;;;5.70;99.90;;;;;;8390766;28;19924;-73
2023/03/16 07:07:56;;;;;;;;;;;5.70;99.90;;;;;;8395366;28;19924;-73
2023/03/16 07:11:58;;;;;;;;;;;5.70;99.90;;;;;;8391825;28;19931;-73
2023/03/16 07:16:00;;;;;;;;;;;5.70;99.90;;;;;;8374156;28;20012;-73
2023/03/16 07:20:04;;;;;;;;;;;5.80;99.90;;;;;;8396417;28;20392;-73
2023/03/16 07:24:07;;;;;;;;;;;5.80;99.90;;;;;;8365972;28;20319;-73
2023/03/16 07:28:10;;;;;;;;;;;5.80;99.90;;;;;;8383292;28;19933;-73
2023/03/16 07:32:12;;;;;;;;;;;5.90;99.90;;;;;;8375062;28;19924;-73
2023/03/16 07:36:14;;;;;;;;;;;5.90;99.90;;;;;;8376560;28;20000;-71
2023/03/16 07:40:15;;;;;;;;;;;5.90;99.90;;;;;;8390401;28;19975;-73
2023/03/16 07:44:17;;;;;;;;;;;5.90;99.90;;;;;;8396928;28;19979;-73
2023/03/16 07:48:19;;;;;;;;;;;5.90;99.90;;;;;;8374605;28;20399;-73
2023/03/16 07:52:21;;;;;;;;;;;5.90;99.90;;;;;;8378048;28;20384;-73
2023/03/16 07:56:23;;;;;;;;;;;6.00;99.90;;;;;;8397181;28;19931;-73
2023/03/16 08:00:24;;;;;;;;;;;6.00;99.90;;;;;;8352090;28;20340;-73
2023/03/16 08:04:26;;;;;;;;;;;6.00;99.90;;;;;;8376651;28;19932;-73
2023/03/16 08:08:28;;;;;;;;;;;6.10;99.90;;;;;;8369469;28;20375;-73
2023/03/16 08:12:30;;;;;;;;;;;6.30;99.90;;;;;;8388045;28;19959;-73
2023/03/16 08:16:32;;;;;;;;;;;6.40;99.90;;;;;;8376992;28;20022;-73
2023/03/16 08:20:34;;;;;;;;;;;6.50;99.90;;;;;;8364092;28;20012;-73
2023/03/16 08:24:37;;;;;;;;;;;6.60;99.90;;;;;;8382360;28;19925;-73
2023/03/16 08:28:38;;;;;;;;;;;6.70;99.90;;;;;;8373902;28;19925;-73
2023/03/16 08:32:40;;;;;;;;;;;6.80;99.90;;;;;;8378988;28;19935;-73
2023/03/16 08:36:42;;;;;;;;;;;6.80;99.90;;;;;;8362903;28;20373;-73
2023/03/16 08:40:47;;;;;;;;;;;6.80;99.90;;;;;;8366616;28;19928;-73
2023/03/16 08:44:49;;;;;;;;;;;6.90;99.90;;;;;;8365796;28;19929;-73
2023/03/16 08:48:51;;;;;;;;;;;6.90;99.90;;;;;;8362943;28;19925;-73
2023/03/16 08:52:53;;;;;;;;;;;6.90;99.90;;;;;;8402900;28;19924;-73
2023/03/16 08:56:54;;;;;;;;;;;7.00;99.90;;;;;;8390669;28;20381;-73
2023/03/16 09:00:56;;;;;;;;;;;7.00;99.90;;;;;;8378482;28;19932;-73
2023/03/16 09:04:57;;;;;;;;;;;7.10;99.90;;;;;;8379599;28;20038;-73
2023/03/16 09:08:59;;;;;;;;;;;7.10;99.90;;;;;;8388270;28;19971;-73
2023/03/16 09:13:01;;;;;;;;;;;7.10;99.90;;;;;;8388093;28;19936;-73
2023/03/16 09:17:04;;;;;;;;;;;7.10;99.90;;;;;;8375722;28;20452;-73
2023/03/16 09:21:06;;;;;;;;;;;7.10;99.90;;;;;;8371954;28;19968;-73
2023/03/16 09:25:10;;;;;;;;;;;7.20;99.90;;;;;;8378123;28;19970;-73
2023/03/16 09:29:11;;;;;;;;;;;7.20;99.90;;;;;;8389047;28;19969;-73
2023/03/16 09:33:13;;;;;;;;;;;7.30;99.90;;;;;;8382819;28;19932;-73
2023/03/16 09:37:15;;;;;;;;;;;7.40;99.90;;;;;;8374338;28;20019;-73
2023/03/16 09:41:21;;;;;;;;;;;7.60;99.90;;;;;;8375789;28;19925;-73
2023/03/16 09:45:30;;;;;;;;;;;7.60;99.90;;;;;;8388115;28;19929;-73
2023/03/16 09:49:59;;;;;;;;;;;7.80;99.90;;;;;;8354194;28;19966;-73
2023/03/16 09:54:01;;;;;;;;;;;7.90;99.90;;;;;;8382609;28;19934;-73
2023/03/16 09:58:04;;;;;;;;;;;8.10;99.90;;;;;;8370903;28;19924;-73
2023/03/16 10:02:21;;;;;;;;;;;8.30;99.90;;;;;;8390630;28;20288;-73
2023/03/16 10:06:23;;;;;;;;;;;8.60;99.90;;;;;;8388747;28;19928;-73
2023/03/16 10:10:44;;;;;;;;;;;8.80;99.90;;;;;;8386964;28;20297;-73
2023/03/16 10:14:51;;;;;;;;;;;9.10;99.90;;;;;;8390067;28;19924;-73
2023/03/16 10:19:08;;;;;;;;;;;9.40;99.90;;;;;;8392322;28;19964;-73
2023/03/16 10:23:20;;;;;;;;;;;9.60;99.90;;;;;;8374152;28;19931;-73
2023/03/16 10:27:24;;;;;;;;;;;9.80;99.90;;;;;;8393574;28;19924;-73
2023/03/16 10:31:27;;;;;;;;;;;10.10;99.90;;;;;;8371672;28;19929;-73
2023/03/16 10:35:35;;;;;;;;;;;10.40;99.90;;;;;;8389743;28;20359;-73
2023/03/16 10:39:41;;;;;;;;;;;10.70;99.90;;;;;;8380237;28;19928;-74
2023/03/16 10:43:44;;;;;;;;;;;11.00;99.90;;;;;;8387486;28;19947;-73
2023/03/16 10:47:45;;;;;;;;;;;11.20;99.90;;;;;;8376727;28;19968;-73
2023/03/16 10:51:48;;;;;;;;;;;11.40;99.90;;;;;;8369604;28;19936;-73
2023/03/16 10:55:50;;;;;;;;;;;11.40;99.90;;;;;;8366022;28;19925;-73
2023/03/16 10:59:54;;;;;;;;;;;11.40;99.90;;;;;;8399225;28;19925;-73
2023/03/16 11:03:56;;;;;;;;;;;11.20;99.90;;;;;;8386077;28;19943;-73
2023/03/16 11:07:57;;;;;;;;;;;11.10;99.90;;;;;;8386478;28;20308;-73
2023/03/16 11:12:10;;;;;;;;;;;11.00;99.90;;;;;;8379094;28;19925;-73
2023/03/16 11:16:29;;;;;;;;;;;10.90;99.90;;;;;;8380566;28;19971;-73
2023/03/16 11:20:32;;;;;;;;;;;10.90;99.90;;;;;;8371985;28;19958;-73
2023/03/16 11:24:52;;;;;;;;;;;10.90;99.90;;;;;;8387199;28;21615;-73
2023/03/16 11:29:10;;;;;;;;;;;10.90;99.90;;;;;;8388228;28;20288;-73
2023/03/16 11:33:13;;;;;;;;;;;11.00;99.90;;;;;;8377982;28;19975;-73
2023/03/16 11:37:26;;;;;;;;;;;11.20;99.90;;;;;;8384709;28;19925;-73
2023/03/16 11:41:43;;;;;;;;;;;11.30;99.90;;;;;;8366446;28;20007;-73
2023/03/16 11:45:55;;;;;;;;;;;11.40;99.90;;;;;;8369013;28;20274;-73
2023/03/16 11:50:06;;;;;;;;;;;11.60;99.90;;;;;;8357583;28;19924;-73
2023/03/16 11:54:26;;;;;;;;;;;11.80;99.90;;;;;;8354327;28;19943;-73
2023/03/16 11:58:46;;;;;;;;;;;12.00;99.90;;;;;;8369248;28;20265;-73
2023/03/16 12:03:03;;;;;;;;;;;12.20;99.90;;;;;;8355878;28;20379;-74
2023/03/16 12:17:14;;;;;;;;;;;12.90;99.90;;;;;;8376390;28;20744;-74
2023/03/16 12:21:20;;;;;;;;;;;13.30;99.90;;;;;;8368949;28;19925;-74
2023/03/16 12:25:31;;;;;;;;;;;13.60;99.90;;;;;;8365702;28;19960;-74
2023/03/16 12:29:33;;;;;;;;;;;14.20;99.90;;;;;;8361599;28;20018;-73
2023/03/16 12:33:47;;;;;;;;;;;14.60;99.90;;;;;;8366713;28;19932;-73
2023/03/16 12:37:49;;;;;;;;;;;14.80;99.90;;;;;;8369847;28;19993;-74
2023/03/16 12:42:09;;;;;;;;;;;14.80;99.90;;;;;;8356280;28;19938;-73
2023/03/16 12:46:13;;;;;;;;;;;14.70;99.90;;;;;;8363054;28;20391;-73
2023/03/16 12:50:17;;;;;;;;;;;14.50;99.90;;;;;;8363715;28;19925;-74
2023/03/16 12:54:20;;;;;;;;;;;14.30;99.90;;;;;;8356469;28;19925;-74
2023/03/16 12:58:23;;;;;;;;;;;14.20;99.90;;;;;;8361748;28;19928;-74
2023/03/16 13:02:27;;;;;;;;;;;14.20;99.90;;;;;;8364132;28;20015;-74
2023/03/16 13:06:31;;;;;;;;;;;14.30;99.90;;;;;;8369541;28;19937;-74
2023/03/16 13:10:36;;;;;;;;;;;14.30;99.90;;;;;;8363886;28;20031;-75
2023/03/16 13:14:39;;;;;;;;;;;14.40;99.90;;;;;;8358182;28;19929;-75
2023/03/16 13:18:43;;;;;;;;;;;14.50;99.90;;;;;;8372665;28;19928;-74
2023/03/16 13:22:50;;;;;;;;;;;14.60;99.90;;;;;;8369759;28;24684;-74
2023/03/16 13:26:53;;;;;;;;;;;14.70;99.90;;;;;;8370866;28;19975;-74
2023/03/16 13:30:54;;;;;;;;;;;14.70;99.90;;;;;;8369846;28;19932;-74
2023/03/16 13:34:57;;;;;;;;;;;14.80;98.60;;;;;;8362290;28;19925;-74
2023/03/16 13:39:28;;;;;;;;;;;14.80;99.40;;;;;;8360067;28;19929;-74
2023/03/16 13:43:31;;;;;;;;;;;14.90;99.90;;;;;;8346030;28;19939;-74
2023/03/16 13:47:33;;;;;;;;;;;15.00;98.60;;;;;;8360789;28;19932;-75
2023/03/16 13:51:35;;;;;;;;;;;14.80;98.70;;;;;;8362872;28;19924;-74
2023/03/16 13:55:37;;;;;;;;;;;14.90;98.20;;;;;;8366395;28;19976;-74
2023/03/16 13:59:42;;;;;;;;;;;15.00;95.70;;;;;;8361864;28;19972;-74
2023/03/16 14:03:44;;;;;;;;;;;15.20;99.00;;;;;;8365951;28;19931;-74
2023/03/16 14:07:47;;;;;;;;;;;15.20;94.80;;;;;;8364248;28;19948;-74
2023/03/16 14:11:49;;;;;;;;;;;15.20;96.70;;;;;;8341655;28;19925;-74
2023/03/16 14:16:14;;;;;;;;;;;15.20;94.70;;;;;;8373049;28;19929;-75
2023/03/16 14:20:20;;;;;;;;;;;15.40;96.40;;;;;;8354621;28;19932;-74
2023/03/16 14:24:28;;;;;;;;;;;15.60;95.40;;;;;;8365178;28;19936;-74
2023/03/16 14:28:31;;;;;;;;;;;16.00;98.10;;;;;;8362319;28;19929;-74
2023/03/16 14:32:33;;;;;;;;;;;16.90;99.90;;;;;;8357288;28;19964;-74
2023/03/16 14:36:37;;;;;;;;;;;17.50;95.90;;;;;;8299644;28;1826011;-74
2023/03/16 14:40:39;;;;;;;;;;;17.70;96.90;;;;;;8357537;28;19924;-74
2023/03/16 14:44:41;;;;;;;;;;;18.10;97.40;;;;;;8351700;28;19933;-75
2023/03/16 14:48:44;;;;;;;;;;;18.10;93.90;;;;;;8360722;28;20027;-74
2023/03/16 14:52:46;;;;;;;;;;;18.30;95.80;;;;;;8386215;28;20352;-74
2023/03/16 14:56:49;;;;;;;;;;;18.20;92.70;;;;;;8373333;28;19968;-74
2023/03/16 15:00:52;;;;;;;;;;;18.30;98.20;;;;;;8355477;28;19964;-75
2023/03/16 15:04:55;;;;;;;;;;;18.50;98.20;;;;;;8373652;28;19968;-75
2023/03/16 15:08:57;;;;;;;;;;;18.50;93.20;;;;;;8366725;28;19925;-75
2023/03/16 15:13:11;;;;;;;;;;;18.30;86.30;;;;;;8367514;28;19931;-75
2023/03/16 15:17:14;;;;;;;;;;;18.40;95.20;;;;;;8364916;28;19936;-75
2023/03/16 15:21:17;;;;;;;;;;;18.30;95.70;;;;;;8361937;28;19978;-75
2023/03/16 15:25:19;;;;;;;;;;;18.30;96.10;;;;;;8366585;28;19924;-75
2023/03/16 15:29:21;;;;;;;;;;;18.80;96.50;;;;;;8362050;28;19929;-75
2023/03/16 15:33:23;;;;;;;;;;;19.40;99.30;;;;;;8365838;28;19931;-75
2023/03/16 15:37:26;;;;;;;;;;;19.60;96.50;;;;;;8359402;28;20718;-75
2023/03/16 15:41:28;;;;;;;;;;;19.60;92.40;;;;;;8364171;28;20031;-75
2023/03/16 15:45:42;;;;;;;;;;;19.70;93.80;;;;;;8360253;28;19932;-73
2023/03/16 15:49:45;;;;;;;;;;;19.70;94.10;;;;;;8361956;28;19982;-73
2023/03/16 15:53:50;;;;;;;;;;;19.90;91.30;;;;;;8359224;28;19932;-73
2023/03/16 15:57:57;;;;;;;;;;;20.10;92.30;;;;;;8362043;28;20828;-73
2023/03/16 16:01:59;;;;;;;;;;;20.00;93.80;;;;;;8365565;28;20018;-73
2023/03/16 16:06:00;;;;;;;;;;;19.50;90.30;;;;;;8344749;28;19976;-73
2023/03/16 16:10:02;;;;;;;;;;;19.30;94.20;;;;;;8361094;28;20010;-73
2023/03/16 16:14:04;;;;;;;;;;;19.30;90.20;;;;;;8359790;28;19943;-73
2023/03/16 16:18:21;;;;;;;;;;;19.30;94.80;;;;;;8352279;28;19931;-73
2023/03/16 16:22:23;;;;;;;;;;;19.20;90.60;;;;;;8360906;28;20283;-73
2023/03/16 16:26:29;;;;;;;;;;;18.90;87.00;;;;;;8371931;28;20380;-73
2023/03/16 16:30:48;;;;;;;;;;;18.70;80.40;;;;;;8367369;28;20498;-73
2023/03/16 16:34:49;;;;;;;;;;;18.50;82.00;;;;;;8365197;28;19932;-73
2023/03/16 16:39:04;;;;;;;;;;;18.50;77.30;;;;;;8366933;28;20031;-73
2023/03/16 16:43:09;;;;;;;;;;;18.50;83.90;;;;;;8360595;28;19975;-73
2023/03/16 16:47:19;;;;;;;;;;;18.70;82.80;;;;;;8362056;28;19929;-73
2023/03/16 16:51:24;;;;;;;;;;;18.80;82.10;;;;;;8361835;28;19929;-73
2023/03/16 16:55:26;;;;;;;;;;;18.40;80.60;;;;;;8366104;28;19931;-73
2023/03/16 16:59:30;;;;;;;;;;;17.90;75.00;;;;;;8382807;28;19947;-73
2023/03/16 17:03:32;;;;;;;;;;;17.30;76.80;;;;;;8365294;28;19929;-73
2023/03/16 17:07:36;;;;;;;;;;;16.80;81.70;;;;;;8370451;28;19956;-73
2023/03/16 17:11:38;;;;;;;;;;;16.30;83.20;;;;;;8369975;28;19935;-72
2023/03/16 17:15:39;;;;;;;;;;;16.10;80.30;;;;;;8363575;28;20031;-73
2023/03/16 17:19:45;;;;;;;;;;;16.00;85.20;;;;;;8351009;28;19928;-73
2023/03/16 17:23:47;;;;;;;;;;;15.90;86.00;;;;;;8361345;28;20199;-73
2023/03/16 17:27:50;;;;;;;;;;;15.80;88.60;;;;;;8377634;28;19939;-73
2023/03/16 17:31:52;;;;;;;;;;;15.60;86.00;;;;;;8362180;28;20372;-73
2023/03/16 17:35:54;;;;;;;;;;;15.40;87.60;;;;;;8363724;28;20449;-68
2023/03/16 17:39:56;;;;;;;;;;;15.10;87.10;;;;;;8372342;28;19955;-67
2023/03/16 17:44:00;;;;;;;;;;;14.90;88.80;;;;;;8372938;28;19935;-67
2023/03/16 17:48:04;;;;;;;;;;;14.70;88.30;;;;;;8359833;28;20016;-68
2023/03/16 17:52:17;;;;;;;;;;;14.50;89.40;;;;;;8360440;28;19928;-68
2023/03/16 17:56:24;;;;;;;;;;;14.40;89.50;;;;;;8342598;28;19925;-67
2023/03/16 18:00:28;;;;;;;;;;;14.20;90.00;;;;;;8343264;28;19936;-67
2023/03/16 18:04:30;;;;;;;;;;;14.00;89.70;;;;;;8358072;28;19955;-68
2023/03/16 18:08:34;;;;;;;;;;;13.90;90.20;;;;;;8369902;28;20058;-68
2023/03/16 18:12:36;;;;;;;;;;;13.70;90.10;;;;;;8345783;28;19924;-68
2023/03/16 18:16:38;;;;;;;;;;;13.60;90.20;;;;;;8380304;28;19925;-68
2023/03/16 18:20:39;;;;;;;;;;;13.50;90.20;;;;;;8359441;28;19924;-68
2023/03/16 18:24:41;;;;;;;;;;;13.40;90.50;;;;;;8346334;28;20338;-68
2023/03/16 18:28:44;;;;;;;;;;;13.30;90.70;;;;;;8375698;28;19928;-70
2023/03/16 18:32:46;;;;;;;;;;;13.30;90.90;;;;;;8354010;28;19975;-70
2023/03/16 18:36:48;;;;;;;;;;;13.20;91.00;;;;;;8368498;28;21536;-70
2023/03/16 18:40:50;;;;;;;;;;;13.10;91.20;;;;;;8363357;28;20370;-70
2023/03/16 18:44:52;;;;;;;;;;;13.10;91.30;;;;;;8356225;28;19952;-70
2023/03/16 18:48:58;;;;;;;;;;;13.00;91.40;;;;;;8355295;28;19971;-70
2023/03/16 18:53:00;;;;;;;;;;;12.90;91.60;;;;;;8357398;28;20211;-70
2023/03/16 18:57:03;;;;;;;;;;;12.80;91.80;;;;;;8357923;28;19929;-70
2023/03/16 19:01:05;;;;;;;;;;;12.70;92.00;;;;;;8379948;28;19931;-70
2023/03/16 19:05:11;;;;;;;;;;;12.50;92.20;;;;;;8358365;28;20035;-70
2023/03/16 19:09:16;;;;;;;;;;;12.40;92.40;;;;;;8363624;28;19975;-70
2023/03/16 19:13:21;;;;;;;;;;;12.30;92.20;;;;;;8359101;28;20035;-70
2023/03/16 19:17:22;;;;;;;;;;;12.30;92.30;;;;;;8344823;28;20387;-70
2023/03/16 19:21:24;;;;;;;;;;;12.20;92.50;;;;;;8366771;28;19935;-70
2023/03/16 19:25:31;;;;;;;;;;;12.10;92.80;;;;;;8353741;28;19932;-70
2023/03/16 19:29:33;;;;;;;;;;;12.00;92.90;;;;;;8365052;28;19978;-70
2023/03/16 19:33:37;;;;;;;;;;;11.90;93.10;;;;;;8360381;28;19998;-70
2023/03/16 19:37:39;;;;;;;;;;;11.80;93.30;;;;;;8360518;28;20357;-70
2023/03/16 19:41:40;;;;;;;;;;;11.70;93.50;;;;;;8357737;28;19935;-70
2023/03/16 19:45:42;;;;;;;;;;;11.60;93.50;;;;;;8376551;28;19925;-70
2023/03/16 19:49:44;;;;;;;;;;;11.50;93.10;;;;;;8364957;28;19932;-70
2023/03/16 19:53:46;;;;;;;;;;;11.40;93.70;;;;;;8360989;28;19973;-70
2023/03/16 19:57:48;;;;;;;;;;;11.30;93.90;;;;;;8375740;28;19943;-70
2023/03/16 20:01:50;;;;;;;;;;;11.30;93.90;;;;;;8341268;28;20376;-70
2023/03/16 20:05:52;;;;;;;;;;;11.20;93.60;;;;;;8362214;28;20293;-69
2023/03/16 20:09:54;;;;;;;;;;;11.20;93.60;;;;;;8363169;28;19935;-70
2023/03/16 20:13:56;;;;;;;;;;;11.20;93.70;;;;;;8360355;28;19939;-69
2023/03/16 20:17:58;;;;;;;;;;;11.10;94.50;;;;;;8358770;28;20376;-70
2023/03/16 20:22:00;;;;;;;;;;;11.10;93.90;;;;;;8355430;28;19979;-70
2023/03/16 20:26:02;;;;;;;;;;;11.10;93.90;;;;;;8357987;28;19960;-70
2023/03/16 20:30:12;;;;;;;;;;;11.10;93.70;;;;;;8361475;28;19957;-70
2023/03/16 20:34:19;;;;;;;;;;;11.10;93.80;;;;;;8363935;28;20019;-70
2023/03/16 20:38:21;;;;;;;;;;;11.10;93.80;;;;;;8359033;28;19968;-70
2023/03/16 20:42:25;;;;;;;;;;;11.00;94.00;;;;;;8358352;28;19925;-70
2023/03/16 20:46:28;;;;;;;;;;;11.00;93.70;;;;;;8357663;28;19936;-70
2023/03/16 20:50:30;;;;;;;;;;;11.00;93.60;;;;;;8363194;28;19929;-70
2023/03/16 20:54:31;;;;;;;;;;;11.00;94.40;;;;;;8366499;28;20415;-70
2023/03/16 20:58:33;;;;;;;;;;;11.00;93.70;;;;;;8356821;28;19987;-70
2023/03/16 21:02:35;;;;;;;;;;;10.90;93.90;;;;;;8341514;28;20506;-70
2023/03/16 21:06:37;;;;;;;;;;;10.90;93.60;;;;;;8376210;28;20014;-69
2023/03/16 21:10:40;;;;;;;;;;;10.80;93.60;;;;;;8357226;28;19972;-70
2023/03/16 21:14:41;;;;;;;;;;;10.80;94.30;;;;;;8360966;28;20338;-70
2023/03/16 21:18:43;;;;;;;;;;;10.80;94.20;;;;;;8356334;28;19925;-71
2023/03/16 21:22:45;;;;;;;;;;;10.70;94.40;;;;;;8362247;28;19924;-70
2023/03/16 21:26:47;;;;;;;;;;;10.70;94.00;;;;;;8343063;28;20400;-70
2023/03/16 21:30:53;;;;;;;;;;;10.70;94.20;;;;;;8370552;28;19964;-70
2023/03/16 21:34:55;;;;;;;;;;;10.70;93.90;;;;;;8357433;28;19978;-70
2023/03/16 21:38:57;;;;;;;;;;;10.60;94.00;;;;;;8365428;28;20372;-70
2023/03/16 21:42:58;;;;;;;;;;;10.60;94.10;;;;;;8365528;28;19975;-70
2023/03/16 21:47:00;;;;;;;;;;;10.50;94.10;;;;;;8342094;28;20018;-70
2023/03/16 21:51:04;;;;;;;;;;;10.50;94.30;;;;;;8358785;28;19932;-70
2023/03/16 21:55:12;;;;;;;;;;;10.40;94.30;;;;;;8364350;28;19928;-70
2023/03/16 21:59:23;;;;;;;;;;;10.30;94.40;;;;;;8366116;28;19940;-70
2023/03/16 22:03:29;;;;;;;;;;;10.30;94.70;;;;;;8379788;28;19933;-70
2023/03/16 22:07:50;;;;;;;;;;;10.30;94.80;;;;;;8388847;28;19942;-70
2023/03/16 22:11:51;;;;;;;;;;;10.20;94.90;;;;;;8398502;28;20392;-70
2023/03/16 22:15:56;;;;;;;;;;;10.10;94.30;;;;;;8399485;28;20372;-70
2023/03/16 22:19:58;;;;;;;;;;;10.10;95.00;;;;;;8382083;28;19924;-70
2023/03/16 22:24:00;;;;;;;;;;;10.00;95.10;;;;;;8381314;28;19963;-70
2023/03/16 22:28:09;;;;;;;;;;;9.90;95.20;;;;;;8377436;28;19934;-70
2023/03/16 22:32:15;;;;;;;;;;;9.90;95.60;;;;;;8385596;28;19932;-70
2023/03/16 22:36:18;;;;;;;;;;;9.80;96.10;;;;;;8371828;28;19925;-70
2023/03/16 22:40:22;;;;;;;;;;;9.80;95.30;;;;;;8378365;28;19931;-70
2023/03/16 22:44:23;;;;;;;;;;;9.70;95.50;;;;;;8374949;28;20275;-69
2023/03/16 22:48:26;;;;;;;;;;;9.70;95.60;;;;;;8390721;28;19924;-70
2023/03/16 22:52:29;;;;;;;;;;;9.60;96.20;;;;;;8383019;28;19925;-70
2023/03/16 22:56:31;;;;;;;;;;;9.60;96.00;;;;;;8387561;28;20384;-69
2023/03/16 23:00:33;;;;;;;;;;;9.60;96.50;;;;;;8384837;28;19931;-70
2023/03/16 23:04:34;;;;;;;;;;;9.60;95.90;;;;;;8389221;28;19924;-69
2023/03/16 23:08:36;;;;;;;;;;;9.60;96.20;;;;;;8373052;28;20368;-70
2023/03/16 23:12:38;;;;;;;;;;;9.60;96.20;;;;;;8389493;28;19925;-70
2023/03/16 23:16:40;;;;;;;;;;;9.70;95.70;;;;;;8364181;28;20011;-70
2023/03/16 23:20:42;;;;;;;;;;;9.60;96.30;;;;;;8382697;28;19964;-70
2023/03/16 23:24:44;;;;;;;;;;;9.60;96.40;;;;;;8390723;28;19924;-70
2023/03/16 23:28:47;;;;;;;;;;;9.50;95.80;;;;;;8398396;28;19925;-70
2023/03/16 23:32:51;;;;;;;;;;;9.50;96.60;;;;;;8383164;28;19991;-69
2023/03/16 23:36:52;;;;;;;;;;;9.50;96.70;;;;;;8383897;28;19935;-70
2023/03/16 23:40:54;;;;;;;;;;;9.50;96.00;;;;;;8375467;28;19954;-70
2023/03/16 23:44:57;;;;;;;;;;;9.50;96.80;;;;;;8353739;28;19947;-69
2023/03/16 23:49:01;;;;;;;;;;;9.40;96.20;;;;;;8383113;28;19964;-70
